createdAt,value
2018-05-24T09:49:16.023Z,1676
2018-05-24T09:50:16.366Z,1864
2018-05-24T09:51:15.988Z,1904
2018-05-24T09:52:15.987Z,1808
2018-05-24T09:53:16.233Z,2136
2018-05-24T09:54:16.425Z,2848
2018-05-24T09:55:16.150Z,3112
2018-05-24T09:56:15.967Z,3008
2018-05-24T09:57:15.970Z,2848
2018-05-24T09:58:16.198Z,2520
2018-05-24T09:59:15.935Z,2144
2018-05-24T10:00:15.931Z,2228
2018-05-24T10:01:15.484Z,2740
2018-05-24T10:02:15.940Z,3100
2018-05-24T10:03:15.911Z,3184
2018-05-24T10:04:15.664Z,3172
2018-05-24T10:05:15.901Z,3020
2018-05-24T10:06:15.378Z,2816
2018-05-24T10:07:15.629Z,2656
2018-05-24T10:08:15.884Z,2564
2018-05-24T10:09:16.191Z,2548
2018-05-24T10:10:16.230Z,2488
2018-05-24T10:11:15.890Z,2316
2018-05-24T10:12:15.601Z,2256
2018-05-24T10:13:15.863Z,2356
2018-05-24T10:14:16.120Z,2380
2018-05-24T10:15:15.888Z,2192
2018-05-24T10:16:15.675Z,1852
2018-05-24T10:17:15.343Z,1440
2018-05-24T10:18:16.280Z,1116
2018-05-24T10:19:15.815Z,824
2018-05-24T10:20:16.073Z,616
2018-05-24T10:21:16.137Z,712
2018-05-24T10:22:15.545Z,752
2018-05-24T10:23:15.802Z,804
2018-05-24T10:24:15.532Z,1012
2018-05-24T10:25:15.783Z,1036
2018-05-24T10:26:15.777Z,956
2018-05-24T10:27:15.779Z,960
2018-05-24T10:28:15.509Z,1056
2018-05-24T10:29:15.778Z,1268
2018-05-24T10:30:15.753Z,1524
2018-05-24T10:31:15.749Z,1568
2018-05-24T10:32:15.999Z,1576
2018-05-24T10:33:15.993Z,1784
2018-05-24T10:34:15.730Z,1916
2018-05-24T10:35:15.726Z,1844
2018-05-24T10:36:15.461Z,1644
2018-05-24T10:37:15.461Z,1604
2018-05-24T10:38:15.710Z,1644
2018-05-24T10:39:15.705Z,1776
2018-05-24T10:40:15.435Z,1892
2018-05-24T10:41:15.951Z,2104
2018-05-24T10:42:15.948Z,2320
2018-05-24T10:43:15.418Z,2504
2018-05-24T10:44:15.675Z,2528
2018-05-24T10:45:15.588Z,2532
2018-05-24T10:46:15.403Z,2416
2018-05-24T10:47:15.653Z,2264
2018-05-24T10:48:15.659Z,2220
2018-05-24T10:49:15.901Z,2584
2018-05-24T10:50:15.380Z,2936
2018-05-24T10:51:15.828Z,3232
2018-05-24T10:52:15.622Z,3336
2018-05-24T10:53:15.876Z,2968
2018-05-24T10:54:16.280Z,3048
2018-05-24T10:55:15.607Z,3316
2018-05-24T10:56:16.027Z,2976
2018-05-24T10:57:15.592Z,3256
2018-05-24T10:58:15.584Z,4004
2018-05-24T10:59:15.577Z,4124
2018-05-24T11:00:15.570Z,4284
2018-05-24T11:01:15.829Z,4808
2018-05-24T11:02:15.560Z,4312
2018-05-24T11:03:15.747Z,4604
2018-05-24T11:04:15.554Z,4188
2018-05-24T11:05:15.544Z,4876
2018-05-24T11:06:15.512Z,4572
2018-05-24T11:07:15.016Z,5080
2018-05-24T11:08:15.526Z,4332
2018-05-24T11:09:15.518Z,3892
2018-05-24T11:10:15.519Z,3820
2018-05-24T11:11:15.766Z,4464
2018-05-24T11:12:15.759Z,4476
2018-05-24T11:13:15.752Z,3908
2018-05-24T11:14:15.231Z,4620
2018-05-24T11:15:15.231Z,4896
2018-05-24T11:16:15.217Z,4408
2018-05-24T11:17:15.471Z,5616
2018-05-24T11:18:15.472Z,5328
2018-05-24T11:19:15.724Z,4956
2018-05-24T11:20:18.719Z,4852
2018-05-24T11:21:15.192Z,4560
2018-05-24T11:22:15.188Z,3940
2018-05-24T11:23:15.441Z,3312
2018-05-24T11:24:15.439Z,3336
2018-05-24T11:25:15.280Z,3416
2018-05-24T11:26:15.690Z,3600
2018-05-24T11:27:15.674Z,3232
2018-05-24T11:28:15.410Z,3016
2018-05-24T11:29:15.408Z,2824
2018-05-24T11:30:15.400Z,2764
2018-05-24T11:31:15.654Z,3120
2018-05-24T11:32:15.500Z,3112
2018-05-24T11:33:15.652Z,2804
2018-05-24T11:34:15.632Z,2544
2018-05-24T11:35:15.376Z,2588
2018-05-24T11:36:15.628Z,3344
2018-05-24T11:37:16.014Z,3824
2018-05-24T11:38:15.105Z,3216
2018-05-24T11:39:15.361Z,2400
2018-05-24T11:40:15.348Z,2548
2018-05-24T11:41:15.344Z,2840
2018-05-24T11:42:15.074Z,2280
2018-05-24T11:43:15.785Z,2180
2018-05-24T11:44:15.587Z,2236
2018-05-24T11:45:15.060Z,2856
2018-05-24T11:46:15.310Z,2704
2018-05-24T11:47:15.066Z,2492
2018-05-24T11:48:15.303Z,2716
2018-05-24T11:49:15.299Z,2508
2018-05-24T11:50:15.557Z,2684
2018-05-24T11:51:15.541Z,3200
2018-05-24T11:52:15.549Z,3076
2018-05-24T11:53:15.529Z,2544
2018-05-24T11:54:15.272Z,2652
2018-05-24T11:55:15.264Z,2652
2018-05-24T11:56:15.517Z,2704
2018-05-24T11:57:14.994Z,2412
2018-05-24T11:58:14.991Z,2424
2018-05-24T11:59:15.243Z,2436
2018-05-24T12:00:14.719Z,2716
2018-05-24T12:01:15.227Z,2728
2018-05-24T12:02:15.483Z,2516
2018-05-24T12:03:15.476Z,2068
2018-05-24T12:04:15.213Z,2144
2018-05-24T12:05:14.953Z,1900
2018-05-24T12:06:15.211Z,2412
2018-05-24T12:07:15.789Z,2724
2018-05-24T12:08:14.938Z,2120
2018-05-24T12:09:14.929Z,2396
2018-05-24T12:10:15.181Z,2280
2018-05-24T12:11:15.178Z,2952
2018-05-24T12:12:15.430Z,3996
2018-05-24T12:13:14.911Z,2740
2018-05-24T12:14:15.157Z,2344
2018-05-24T12:15:15.370Z,2168
2018-05-24T12:16:15.149Z,2136
2018-05-24T12:17:14.886Z,2224
2018-05-24T12:18:15.139Z,2788
2018-05-24T12:19:15.133Z,2700
2018-05-24T12:20:15.387Z,2832
2018-05-24T12:21:15.129Z,3428
2018-05-24T12:22:15.115Z,4556
2018-05-24T12:23:15.370Z,5048
2018-05-24T12:24:15.107Z,5352
2018-05-24T12:25:15.101Z,4852
2018-05-24T12:26:14.837Z,5108
2018-05-24T12:27:15.090Z,4728
2018-05-24T12:28:15.093Z,4172
2018-05-24T12:29:15.860Z,3648
2018-05-24T12:30:15.087Z,3432
2018-05-24T12:31:14.823Z,3324
2018-05-24T12:32:15.410Z,3324
2018-05-24T12:33:15.057Z,3196
2018-05-24T12:34:14.796Z,3400
2018-05-24T12:35:14.893Z,3260
2018-05-24T12:36:15.313Z,2828
2018-05-24T12:37:15.293Z,2612
2018-05-24T12:38:14.777Z,2584
2018-05-24T12:39:15.369Z,2448
2018-05-24T12:40:15.027Z,2164
2018-05-24T12:41:15.279Z,2100
2018-05-24T12:42:15.268Z,2108
2018-05-24T12:43:14.751Z,2096
2018-05-24T12:44:14.487Z,1928
2018-05-24T12:45:14.483Z,1796
2018-05-24T12:46:14.990Z,2164
2018-05-24T12:47:14.989Z,2232
2018-05-24T12:48:14.722Z,1724
2018-05-24T12:49:14.769Z,2060
2018-05-24T12:50:14.715Z,2052
2018-05-24T12:51:15.047Z,2320
2018-05-24T12:52:14.960Z,2264
2018-05-24T12:53:14.696Z,2440
2018-05-24T12:54:15.219Z,2348
2018-05-24T12:55:15.025Z,2104
2018-05-24T12:56:14.796Z,2096
2018-05-24T12:57:15.195Z,2140
2018-05-24T12:58:14.929Z,2352
2018-05-24T12:59:15.193Z,2256
2018-05-24T13:00:14.664Z,1708
2018-05-24T13:01:14.656Z,1952
2018-05-24T13:02:15.173Z,2024
2018-05-24T13:03:14.907Z,1976
2018-05-24T13:04:15.151Z,1860
2018-05-24T13:05:15.164Z,1928
2018-05-24T13:06:14.634Z,2028
2018-05-24T13:07:15.141Z,2052
2018-05-24T13:08:15.140Z,1876
2018-05-24T13:09:14.874Z,1736
2018-05-24T13:10:15.134Z,1684
2018-05-24T13:11:14.720Z,1524
2018-05-24T13:12:14.867Z,1284
2018-05-24T13:13:14.596Z,980
2018-05-24T13:14:14.851Z,840
2018-05-24T13:15:15.103Z,840
2018-05-24T13:16:15.099Z,832
2018-05-24T13:17:14.656Z,788
2018-05-24T13:18:14.831Z,840
2018-05-24T13:19:15.090Z,920
2018-05-24T13:20:14.822Z,1016
2018-05-24T13:21:15.069Z,1036
2018-05-24T13:22:14.809Z,988
2018-05-24T13:23:14.549Z,908
2018-05-24T13:24:14.547Z,848
2018-05-24T13:25:15.055Z,792
2018-05-24T13:26:14.536Z,752
2018-05-24T13:27:15.048Z,712
2018-05-24T13:28:14.775Z,696
2018-05-24T13:29:14.515Z,692
2018-05-24T13:30:14.773Z,616
2018-05-24T13:31:15.020Z,580
2018-05-24T13:32:14.759Z,576
2018-05-24T13:33:15.011Z,600
2018-05-24T13:34:14.748Z,628
2018-05-24T13:35:14.485Z,616
2018-05-24T13:36:14.747Z,652
2018-05-24T13:37:14.736Z,736
2018-05-24T13:38:14.988Z,820
2018-05-24T13:39:14.731Z,884
2018-05-24T13:40:14.718Z,952
2018-05-24T13:41:14.969Z,1004
2018-05-24T13:42:14.967Z,1096
2018-05-24T13:43:14.955Z,1152
2018-05-24T13:44:14.696Z,1208
2018-05-24T13:45:14.837Z,1284
2018-05-24T13:46:14.688Z,1236
2018-05-24T13:47:14.935Z,1172
2018-05-24T13:48:14.682Z,1116
2018-05-24T13:49:14.676Z,1104
2018-05-24T13:50:14.664Z,1148
2018-05-24T13:51:14.925Z,1240
2018-05-24T13:52:14.655Z,1244
2018-05-24T13:53:14.975Z,1312
2018-05-24T13:54:14.649Z,1364
2018-05-24T13:55:14.633Z,1348
2018-05-24T13:56:14.374Z,1384
2018-05-24T13:57:14.622Z,1412
2018-05-24T13:58:14.875Z,1480
2018-05-24T13:59:14.611Z,1552
2018-05-24T14:00:14.622Z,1476
2018-05-24T14:01:14.686Z,1432
2018-05-24T14:02:14.593Z,1276
2018-05-24T14:03:14.331Z,1152
2018-05-24T14:04:14.581Z,1104
2018-05-24T14:05:14.843Z,1000
2018-05-24T14:06:14.319Z,944
2018-05-24T14:07:14.310Z,884
2018-05-24T14:08:14.561Z,804
2018-05-24T14:09:14.809Z,800
2018-05-24T14:10:14.292Z,840
2018-05-24T14:11:14.797Z,936
2018-05-24T14:12:14.793Z,1012
2018-05-24T14:13:14.791Z,1060
2018-05-24T14:14:14.268Z,1076
2018-05-24T14:15:14.261Z,1088
2018-05-24T14:16:14.513Z,1156
2018-05-24T14:17:14.766Z,1208
2018-05-24T14:18:14.507Z,1236
2018-05-24T14:19:14.759Z,1148
2018-05-24T14:20:14.753Z,1076
2018-05-24T14:21:14.754Z,1152
2018-05-24T14:22:14.486Z,1296
2018-05-24T14:23:14.220Z,1252
2018-05-24T14:24:14.473Z,1240
2018-05-24T14:25:14.719Z,1252
2018-05-24T14:26:14.911Z,1216
2018-05-24T14:27:14.198Z,1192
2018-05-24T14:28:14.191Z,1216
2018-05-24T14:29:14.186Z,1136
2018-05-24T14:30:14.692Z,1032
2018-05-24T14:31:14.441Z,1008
2018-05-24T14:32:14.425Z,984
2018-05-24T14:33:14.167Z,924
2018-05-24T14:34:14.157Z,896
2018-05-24T14:35:14.670Z,880
2018-05-24T14:36:14.406Z,860
2018-05-24T14:37:14.657Z,804
2018-05-24T14:38:14.400Z,732
2018-05-24T14:39:14.393Z,712
2018-05-24T14:40:14.127Z,740
2018-05-24T14:41:14.122Z,748
2018-05-24T14:42:14.116Z,724
2018-05-24T14:43:14.630Z,692
2018-05-24T14:44:14.107Z,648
2018-05-24T14:45:14.361Z,616
2018-05-24T14:46:14.352Z,588
2018-05-24T14:47:14.351Z,568
2018-05-24T14:48:14.342Z,532
2018-05-24T14:49:14.596Z,496
2018-05-24T14:50:14.332Z,496
2018-05-24T14:51:14.598Z,488
2018-05-24T14:52:14.064Z,480
2018-05-24T14:53:14.318Z,484
2018-05-24T14:54:14.564Z,484
2018-05-24T14:55:14.346Z,484
2018-05-24T14:56:14.040Z,500
2018-05-24T14:57:14.292Z,516
2018-05-24T14:58:14.298Z,520
2018-05-24T14:59:14.028Z,492
2018-05-24T15:00:14.278Z,464
2018-05-24T15:01:14.276Z,476
2018-05-24T15:02:14.526Z,444
2018-05-24T15:03:14.261Z,436
2018-05-24T15:04:14.529Z,456
2018-05-24T15:05:14.525Z,480
2018-05-24T15:06:14.250Z,488
2018-05-24T15:07:14.510Z,508
2018-05-24T15:08:13.978Z,548
2018-05-24T15:09:14.235Z,556
2018-05-24T15:10:13.966Z,560
2018-05-24T15:11:14.218Z,540
2018-05-24T15:12:14.471Z,468
2018-05-24T15:13:14.286Z,384
2018-05-24T15:14:14.203Z,300
2018-05-24T15:15:13.943Z,312
2018-05-24T15:16:14.450Z,412
2018-05-24T15:17:14.185Z,496
2018-05-24T15:18:13.931Z,484
2018-05-24T15:19:14.179Z,600
2018-05-24T15:20:14.431Z,576
2018-05-24T15:21:14.166Z,488
2018-05-24T15:22:14.160Z,412
2018-05-24T15:23:14.152Z,428
2018-05-24T15:24:13.890Z,520
2018-05-24T15:25:14.146Z,652
2018-05-24T15:26:14.397Z,760
2018-05-24T15:27:14.132Z,864
2018-05-24T15:28:14.386Z,896
2018-05-24T15:29:14.129Z,856
2018-05-24T15:30:14.120Z,784
2018-05-24T15:31:13.851Z,704
2018-05-24T15:32:14.361Z,596
2018-05-24T15:33:13.844Z,468
2018-05-24T15:34:14.093Z,372
2018-05-24T15:35:14.093Z,420
2018-05-24T15:36:14.341Z,564
2018-05-24T15:37:14.081Z,772
2018-05-24T15:38:13.811Z,892
2018-05-24T15:39:14.326Z,876
2018-05-24T15:40:13.803Z,852
2018-05-24T15:41:14.352Z,860
2018-05-24T15:42:14.311Z,912
2018-05-24T15:43:13.792Z,984
2018-05-24T15:44:14.046Z,1072
2018-05-24T15:45:14.047Z,1116
2018-05-24T15:46:13.768Z,1136
2018-05-24T15:47:14.028Z,1156
2018-05-24T15:48:13.760Z,1212
2018-05-24T15:49:14.011Z,1284
2018-05-24T15:50:14.033Z,1360
2018-05-24T15:51:14.270Z,1428
2018-05-24T15:52:14.251Z,1496
2018-05-24T15:53:14.245Z,1552
2018-05-24T15:54:13.978Z,1600
2018-05-24T15:55:14.240Z,1640
2018-05-24T15:56:13.970Z,1668
2018-05-24T15:57:13.453Z,1688
2018-05-24T15:58:13.447Z,1724
2018-05-24T15:59:13.963Z,1772
2018-05-24T16:00:14.206Z,1840
2018-05-24T16:01:13.949Z,1924
2018-05-24T16:02:13.683Z,2016
2018-05-24T16:03:13.934Z,2128
2018-05-24T16:04:14.237Z,2264
2018-05-24T16:05:13.928Z,2416
2018-05-24T16:06:13.917Z,2580
2018-05-24T16:07:14.173Z,2724
2018-05-24T16:08:13.909Z,2852
2018-05-24T16:09:13.902Z,2944
2018-05-24T16:10:14.156Z,3036
2018-05-24T16:11:13.889Z,3160
2018-05-24T16:12:14.140Z,3312
2018-05-24T16:13:14.139Z,3460
2018-05-24T16:14:13.879Z,3604
2018-05-24T16:15:13.868Z,3752
2018-05-24T16:16:14.127Z,3884
2018-05-24T16:17:13.857Z,3956
2018-05-24T16:18:13.851Z,3416
2018-05-24T16:19:13.369Z,1592
2018-05-24T16:20:14.112Z,1776
2018-05-24T16:21:14.093Z,2084
2018-05-24T16:22:13.576Z,2084
2018-05-24T16:23:13.831Z,1896
2018-05-24T16:24:13.831Z,1524
2018-05-24T16:25:13.828Z,1188
2018-05-24T16:26:13.554Z,924
2018-05-24T16:27:13.806Z,744
2018-05-24T16:28:13.288Z,620
2018-05-24T16:29:14.054Z,520
2018-05-24T16:30:13.791Z,456
2018-05-24T16:31:13.270Z,408
2018-05-24T16:32:13.781Z,372
2018-05-24T16:33:14.045Z,344
2018-05-24T16:34:13.513Z,332
2018-05-24T16:35:14.027Z,320
2018-05-24T16:36:14.019Z,316
2018-05-24T16:37:13.753Z,320
2018-05-24T16:38:13.752Z,328
2018-05-24T16:39:13.483Z,332
2018-05-24T16:40:13.998Z,340
2018-05-24T16:41:13.480Z,344
2018-05-24T16:42:13.468Z,348
2018-05-24T16:43:14.010Z,348
2018-05-24T16:44:13.722Z,324
2018-05-24T16:45:13.717Z,364
2018-05-24T16:46:13.958Z,372
2018-05-24T16:47:13.959Z,376
2018-05-24T16:48:13.951Z,380
2018-05-24T16:49:13.716Z,376
2018-05-24T16:50:13.423Z,372
2018-05-24T16:51:13.419Z,368
2018-05-24T16:52:13.933Z,368
2018-05-24T16:53:13.919Z,368
2018-05-24T16:54:13.216Z,364
2018-05-24T16:55:13.929Z,352
2018-05-24T16:56:13.928Z,336
2018-05-24T16:57:13.640Z,328
2018-05-24T16:58:13.636Z,324
2018-05-24T16:59:13.373Z,320
2018-05-24T17:00:13.899Z,312
2018-05-24T17:01:13.623Z,304
2018-05-24T17:02:13.866Z,292
2018-05-24T17:03:13.347Z,288
2018-05-24T17:04:13.870Z,288
2018-05-24T17:05:13.875Z,288
2018-05-24T17:06:13.855Z,292
2018-05-24T17:07:13.327Z,300
2018-05-24T17:08:13.586Z,304
2018-05-24T17:09:13.831Z,304
2018-05-24T17:10:13.843Z,304
2018-05-24T17:11:13.299Z,312
2018-05-24T17:12:13.552Z,312
2018-05-24T17:13:13.821Z,316
2018-05-24T17:14:13.800Z,320
2018-05-24T17:15:13.540Z,316
2018-05-24T17:16:13.275Z,320
2018-05-24T17:17:13.521Z,328
2018-05-24T17:18:13.769Z,344
2018-05-24T17:19:13.778Z,352
2018-05-24T17:20:13.504Z,372
2018-05-24T17:21:13.244Z,392
2018-05-24T17:22:13.496Z,412
2018-05-24T17:23:13.486Z,436
2018-05-24T17:24:13.220Z,452
2018-05-24T17:25:13.732Z,480
2018-05-24T17:26:13.216Z,508
2018-05-24T17:27:13.203Z,548
2018-05-24T17:28:13.453Z,604
2018-05-24T17:29:13.193Z,680
2018-05-24T17:30:13.703Z,764
2018-05-24T17:31:13.439Z,832
2018-05-24T17:32:13.442Z,872
2018-05-24T17:33:13.423Z,904
2018-05-24T17:34:13.161Z,916
2018-05-24T17:35:13.668Z,932
2018-05-24T17:36:13.409Z,944
2018-05-24T17:37:13.656Z,956
2018-05-24T17:38:13.652Z,944
2018-05-24T17:39:13.135Z,924
2018-05-24T17:40:13.378Z,896
2018-05-24T17:41:13.120Z,876
2018-05-24T17:42:13.111Z,868
2018-05-24T17:43:13.110Z,868
2018-05-24T17:44:13.621Z,892
2018-05-24T17:45:13.366Z,912
2018-05-24T17:46:13.606Z,932
2018-05-24T17:47:13.596Z,932
2018-05-24T17:48:13.076Z,936
2018-05-24T17:49:13.075Z,920
2018-05-24T17:50:13.077Z,912
2018-05-24T17:51:13.061Z,912
2018-05-24T17:52:13.059Z,896
2018-05-24T17:53:13.301Z,876
2018-05-24T17:54:13.296Z,872
2018-05-24T17:55:13.035Z,872
2018-05-24T17:56:13.547Z,868
2018-05-24T17:57:13.283Z,868
2018-05-24T17:58:13.273Z,868
2018-05-24T17:59:13.263Z,876
2018-05-24T18:00:13.258Z,856
2018-05-24T18:01:13.270Z,788
2018-05-24T18:02:13.244Z,728
2018-05-24T18:03:13.397Z,704
2018-05-24T18:04:13.494Z,668
2018-05-24T18:05:13.483Z,636
2018-05-24T18:06:13.224Z,608
2018-05-24T18:07:12.958Z,588
2018-05-24T18:08:13.473Z,564
2018-05-24T18:09:12.951Z,544
2018-05-24T18:10:12.938Z,508
2018-05-24T18:11:13.192Z,476
2018-05-24T18:12:13.441Z,444
2018-05-24T18:13:13.180Z,424
2018-05-24T18:14:13.431Z,392
2018-05-24T18:15:13.617Z,356
2018-05-24T18:16:13.152Z,324
2018-05-24T18:17:13.156Z,296
2018-05-24T18:18:12.645Z,280
2018-05-24T18:19:13.402Z,264
2018-05-24T18:20:13.370Z,248
2018-05-24T18:21:12.851Z,224
2018-05-24T18:22:13.336Z,200
2018-05-24T18:23:13.283Z,172
2018-05-24T18:24:13.325Z,156
2018-05-24T18:25:13.314Z,140
2018-05-24T18:26:13.544Z,132
2018-05-24T18:27:13.012Z,124
2018-05-24T18:28:13.590Z,124
2018-05-24T18:29:13.251Z,124
2018-05-24T18:30:13.270Z,120
2018-05-24T18:31:12.931Z,116
2018-05-24T18:32:13.549Z,108
2018-05-24T18:33:13.304Z,108
2018-05-24T18:34:13.457Z,104
2018-05-24T18:35:13.165Z,100
2018-05-24T18:36:13.732Z,100
2018-05-24T18:37:12.933Z,100
2018-05-24T18:38:13.555Z,100
2018-05-24T18:39:12.972Z,96
2018-05-24T18:40:12.637Z,96
2018-05-24T18:41:12.781Z,92
2018-05-24T18:42:12.713Z,88
2018-05-24T18:43:13.654Z,88
2018-05-24T18:44:13.256Z,80
2018-05-24T18:45:13.300Z,76
2018-05-24T18:46:13.626Z,72
2018-05-24T18:47:13.280Z,64
2018-05-24T18:48:13.578Z,56
2018-05-24T18:49:13.358Z,52
2018-05-24T18:50:13.451Z,48
2018-05-24T18:51:13.232Z,40
2018-05-24T18:52:12.827Z,36
2018-05-24T18:53:13.071Z,36
2018-05-24T18:54:13.312Z,32
2018-05-24T18:55:12.932Z,28
2018-05-24T18:56:13.298Z,24
2018-05-24T18:57:12.716Z,28
2018-05-24T18:58:13.247Z,24
2018-05-24T18:59:13.383Z,24
2018-05-24T19:00:13.280Z,20
2018-05-24T19:01:13.158Z,20
2018-05-24T19:02:13.446Z,24
2018-05-24T19:03:13.448Z,24
2018-05-24T19:04:13.138Z,24
2018-05-24T19:05:12.532Z,20
2018-05-24T19:06:13.195Z,20
2018-05-24T19:07:13.397Z,20
2018-05-24T19:08:13.208Z,20
2018-05-24T19:09:13.393Z,20
2018-05-24T19:10:13.019Z,16
2018-05-24T19:11:12.746Z,16
2018-05-24T19:12:12.301Z,20
2018-05-24T19:13:13.160Z,16
2018-05-24T19:14:13.078Z,16
2018-05-24T19:15:12.748Z,12
2018-05-24T19:16:13.098Z,16
2018-05-24T19:17:13.251Z,12
2018-05-24T19:18:12.769Z,12
2018-05-24T19:19:13.033Z,8
2018-05-24T19:20:12.968Z,12
2018-05-24T19:21:13.049Z,8
2018-05-24T19:22:13.311Z,4
2018-05-24T19:23:13.309Z,8
2018-05-24T19:24:13.290Z,4
2018-05-24T19:25:13.813Z,4
2018-05-24T19:26:12.931Z,4
2018-05-24T19:27:12.740Z,4
2018-05-24T19:28:12.968Z,0
2018-05-24T19:29:13.024Z,4
2018-05-24T19:30:13.080Z,4
2018-05-24T19:31:12.610Z,4
2018-05-24T19:32:13.091Z,0
2018-05-24T19:33:12.904Z,0
2018-05-24T19:34:13.210Z,0
2018-05-24T19:35:12.938Z,0
2018-05-24T19:36:12.602Z,0
2018-05-24T19:37:12.918Z,0
2018-05-24T19:38:12.955Z,0
2018-05-24T19:39:12.597Z,0
2018-05-24T19:40:12.993Z,0
2018-05-24T19:41:12.918Z,0
2018-05-24T19:42:12.984Z,0
2018-05-24T19:43:13.125Z,0
2018-05-24T19:44:12.865Z,0
2018-05-24T19:45:12.768Z,0
2018-05-24T19:46:13.057Z,0
2018-05-24T19:47:13.031Z,0
2018-05-24T19:48:12.538Z,0
2018-05-24T19:49:12.482Z,0
2018-05-24T19:50:12.765Z,0
2018-05-24T19:51:12.712Z,0
2018-05-24T19:52:13.455Z,0
2018-05-24T19:53:12.834Z,0
2018-05-24T19:54:13.022Z,0
2018-05-24T19:55:12.490Z,0
2018-05-24T19:56:12.591Z,0
2018-05-24T19:57:12.793Z,0
2018-05-24T19:58:13.210Z,0
2018-05-24T19:59:12.984Z,0
2018-05-24T20:00:13.009Z,0
2018-05-24T20:01:12.662Z,0
2018-05-24T20:02:12.974Z,0
2018-05-24T20:03:12.643Z,0
2018-05-24T20:04:12.657Z,0
2018-05-24T20:05:12.905Z,0
2018-05-24T20:06:12.982Z,0
2018-05-24T20:07:12.666Z,0
2018-05-24T20:08:12.660Z,0
2018-05-24T20:09:12.716Z,0
2018-05-24T20:10:12.419Z,0
2018-05-24T20:11:12.566Z,0
2018-05-24T20:12:12.982Z,0
2018-05-24T20:13:13.078Z,0
2018-05-24T20:14:12.361Z,0
2018-05-24T20:15:12.950Z,0
2018-05-24T20:16:12.867Z,0
2018-05-24T20:17:13.526Z,0
2018-05-24T20:18:12.537Z,0
2018-05-24T20:19:12.207Z,0
2018-05-24T20:20:13.086Z,0
2018-05-24T20:21:12.722Z,0
2018-05-24T20:22:12.307Z,0
2018-05-24T20:23:12.508Z,0
2018-05-24T20:24:13.019Z,0
2018-05-24T20:25:12.664Z,0
2018-05-24T20:26:12.592Z,0
2018-05-24T20:27:12.929Z,0
2018-05-24T20:28:12.866Z,0
2018-05-24T20:29:12.970Z,0
2018-05-24T20:30:12.564Z,0
2018-05-24T20:31:12.572Z,0
2018-05-24T20:32:12.581Z,0
2018-05-24T20:33:12.653Z,0
2018-05-24T20:34:12.943Z,0
2018-05-24T20:35:12.573Z,0
2018-05-24T20:36:12.587Z,0
2018-05-24T20:37:12.667Z,0
2018-05-24T20:38:12.816Z,0
2018-05-24T20:39:12.739Z,0
2018-05-24T20:40:12.926Z,0
2018-05-24T20:41:12.627Z,0
2018-05-24T20:42:12.318Z,0
2018-05-24T20:43:12.448Z,0
2018-05-24T20:44:12.915Z,0
2018-05-24T20:45:12.926Z,0
2018-05-24T20:46:12.504Z,0
2018-05-24T20:47:12.793Z,0
2018-05-24T20:48:12.857Z,0
2018-05-24T20:49:12.536Z,0
2018-05-24T20:50:12.435Z,0
2018-05-24T20:51:12.383Z,0
2018-05-24T20:52:12.171Z,0
2018-05-24T20:53:12.612Z,0
2018-05-24T20:54:12.444Z,0
2018-05-24T20:55:12.393Z,0
2018-05-24T20:56:12.420Z,0
2018-05-24T20:57:12.495Z,0
2018-05-24T20:58:12.434Z,0
2018-05-24T20:59:12.712Z,0
2018-05-24T21:00:12.395Z,0
2018-05-24T21:01:12.747Z,0
2018-05-24T21:02:12.061Z,0
2018-05-24T21:03:12.294Z,0
2018-05-24T21:04:12.308Z,0
2018-05-24T21:05:12.612Z,0
2018-05-24T21:06:12.388Z,0
2018-05-24T21:07:12.523Z,0
2018-05-24T21:08:12.285Z,0
2018-05-24T21:09:12.333Z,0
2018-05-24T21:10:12.303Z,0
2018-05-24T21:11:12.046Z,0
2018-05-24T21:12:12.304Z,0
2018-05-24T21:13:12.290Z,0
2018-05-24T21:14:12.042Z,0
2018-05-24T21:15:12.017Z,0
2018-05-24T21:16:12.007Z,0
2018-05-24T21:17:11.747Z,0
2018-05-24T21:18:12.523Z,0
2018-05-24T21:19:12.246Z,0
2018-05-24T21:20:12.257Z,0
2018-05-24T21:21:12.237Z,0
2018-05-24T21:22:11.968Z,0
2018-05-24T21:23:11.966Z,0
2018-05-24T21:24:11.958Z,0
2018-05-24T21:25:11.951Z,0
2018-05-24T21:26:11.943Z,0
2018-05-24T21:27:12.197Z,0
2018-05-24T21:28:12.188Z,0
2018-05-24T21:29:11.928Z,0
2018-05-24T21:30:11.919Z,0
2018-05-24T21:31:12.170Z,0
2018-05-24T21:32:12.212Z,0
2018-05-24T21:33:11.894Z,0
2018-05-24T21:34:12.149Z,0
2018-05-24T21:35:11.889Z,0
2018-05-24T21:36:11.883Z,0
2018-05-24T21:37:11.610Z,0
2018-05-24T21:38:12.119Z,0
2018-05-24T21:39:12.119Z,0
2018-05-24T21:40:12.110Z,0
2018-05-24T21:41:11.838Z,0
2018-05-24T21:42:11.841Z,0
2018-05-24T21:43:11.868Z,0
2018-05-24T21:44:12.123Z,0
2018-05-24T21:45:11.299Z,0
2018-05-24T21:46:12.068Z,0
2018-05-24T21:47:12.108Z,0
2018-05-24T21:48:11.795Z,0
2018-05-24T21:49:12.066Z,0
2018-05-24T21:50:11.266Z,0
2018-05-24T21:51:11.515Z,0
2018-05-24T21:52:11.770Z,0
2018-05-24T21:53:11.761Z,0
2018-05-24T21:54:11.754Z,0
2018-05-24T21:55:11.746Z,0
2018-05-24T21:56:11.737Z,0
2018-05-24T21:57:11.985Z,0
2018-05-24T21:58:11.984Z,0
2018-05-24T21:59:11.979Z,0
2018-05-24T22:00:11.713Z,0
2018-05-24T22:01:11.961Z,0
2018-05-24T22:02:11.824Z,0
2018-05-24T22:03:11.692Z,0
2018-05-24T22:04:11.944Z,0
2018-05-24T22:05:11.683Z,0
2018-05-24T22:06:11.676Z,0
2018-05-24T22:07:11.924Z,0
2018-05-24T22:08:11.403Z,0
2018-05-24T22:09:11.653Z,0
2018-05-24T22:10:11.387Z,0
2018-05-24T22:11:11.901Z,0
2018-05-24T22:12:11.632Z,0
2018-05-24T22:13:11.885Z,0
2018-05-24T22:14:11.876Z,0
2018-05-24T22:15:11.659Z,0
2018-05-24T22:16:11.626Z,0
2018-05-24T22:17:11.496Z,0
2018-05-24T22:18:11.331Z,0
2018-05-24T22:19:11.845Z,0
2018-05-24T22:20:11.577Z,0
2018-05-24T22:21:11.311Z,0
2018-05-24T22:22:11.563Z,0
2018-05-24T22:23:11.298Z,0
2018-05-24T22:24:11.546Z,0
2018-05-24T22:25:11.538Z,0
2018-05-24T22:26:11.536Z,0
2018-05-24T22:27:11.527Z,0
2018-05-24T22:28:11.776Z,0
2018-05-24T22:29:11.771Z,0
2018-05-24T22:30:11.515Z,0
2018-05-24T22:31:11.270Z,0
2018-05-24T22:32:11.498Z,0
2018-05-24T22:33:11.751Z,0
2018-05-24T22:34:11.748Z,0
2018-05-24T22:35:11.477Z,0
2018-05-24T22:36:11.217Z,0
2018-05-24T22:37:11.462Z,0
2018-05-24T22:38:11.717Z,0
2018-05-24T22:39:11.708Z,0
2018-05-24T22:40:11.209Z,0
2018-05-24T22:41:11.433Z,0
2018-05-24T22:42:11.431Z,0
2018-05-24T22:43:11.684Z,0
2018-05-24T22:44:11.155Z,0
2018-05-24T22:45:11.665Z,0
2018-05-24T22:46:11.658Z,0
2018-05-24T22:47:11.130Z,0
2018-05-24T22:48:11.393Z,0
2018-05-24T22:49:11.379Z,0
2018-05-24T22:50:11.630Z,0
2018-05-24T22:51:11.363Z,0
2018-05-24T22:52:11.115Z,0
2018-05-24T22:53:11.354Z,0
2018-05-24T22:54:11.345Z,0
2018-05-24T22:55:11.540Z,0
2018-05-24T22:56:11.598Z,0
2018-05-24T22:57:11.324Z,0
2018-05-24T22:58:11.642Z,0
2018-05-24T22:59:10.797Z,0
2018-05-24T23:00:10.789Z,0
2018-05-24T23:01:11.300Z,0
2018-05-24T23:02:11.801Z,0
2018-05-24T23:03:11.327Z,0
2018-05-24T23:04:11.277Z,0
2018-05-24T23:05:11.397Z,0
2018-05-24T23:06:11.563Z,0
2018-05-24T23:07:10.999Z,0
2018-05-24T23:08:10.996Z,0
2018-05-24T23:09:11.245Z,0
2018-05-24T23:10:11.241Z,0
2018-05-24T23:11:11.486Z,0
2018-05-24T23:12:11.480Z,0
2018-05-24T23:13:10.703Z,0
2018-05-24T23:14:11.477Z,0
2018-05-24T23:15:11.467Z,0
2018-05-24T23:16:10.943Z,0
2018-05-24T23:17:11.453Z,0
2018-05-24T23:18:10.925Z,0
2018-05-24T23:19:11.441Z,0
2018-05-24T23:20:10.653Z,0
2018-05-24T23:21:11.164Z,0
2018-05-24T23:22:11.419Z,0
2018-05-24T23:23:11.413Z,0
2018-05-24T23:24:11.401Z,0
2018-05-24T23:25:11.383Z,0
2018-05-24T23:26:10.878Z,0
2018-05-24T23:27:10.869Z,0
2018-05-24T23:28:11.558Z,0
2018-05-24T23:29:11.418Z,0
2018-05-24T23:30:11.125Z,0
2018-05-24T23:31:11.104Z,0
2018-05-24T23:32:11.353Z,0
2018-05-24T23:33:11.610Z,0
2018-05-24T23:34:11.347Z,0
2018-05-24T23:35:11.074Z,0
2018-05-24T23:36:11.326Z,0
2018-05-24T23:37:11.067Z,0
2018-05-24T23:38:11.050Z,0
2018-05-24T23:39:11.303Z,0
2018-05-24T23:40:11.297Z,0
2018-05-24T23:41:11.323Z,0
2018-05-24T23:42:10.509Z,0
2018-05-24T23:43:11.022Z,0
2018-05-24T23:44:11.398Z,0